createdAt,value
2019-06-07T00:01:32.898Z,16.52
2019-06-07T00:04:03.325Z,16.24
2019-06-07T00:06:34.118Z,16.21
2019-06-07T00:09:08.138Z,16.25
2019-06-07T00:11:37.202Z,16.20
2019-06-07T00:14:08.626Z,16.22
2019-06-07T00:16:39.453Z,16.33
2019-06-07T00:19:11.967Z,16.33
2019-06-07T00:22:13.578Z,16.34
2019-06-07T00:24:16.228Z,16.41
2019-06-07T00:26:57.619Z,16.35
2019-06-07T00:29:21.763Z,16.13
2019-06-07T00:31:51.168Z,15.79
2019-06-07T00:34:22.926Z,15.57
2019-06-07T00:36:54.513Z,15.42
2019-06-07T00:39:26.135Z,15.41
2019-06-07T00:41:56.945Z,15.63
2019-06-07T00:44:27.456Z,15.54
2019-06-07T00:46:57.773Z,15.42
2019-06-07T00:49:40.390Z,15.45
2019-06-07T00:52:01.419Z,15.76
2019-06-07T00:54:32.092Z,13.71
2019-06-07T00:57:02.402Z,15.34
2019-06-07T00:59:32.710Z,15.14
2019-06-07T01:02:03.530Z,15.07
2019-06-07T01:04:35.546Z,15.25
2019-06-07T01:07:06.183Z,15.47
2019-06-07T01:09:37.944Z,15.48
2019-06-07T01:12:08.381Z,15.33
2019-06-07T01:14:38.789Z,15.54
2019-06-07T01:17:39.220Z,15.40
2019-06-07T01:19:58.065Z,15.53
2019-06-07T01:22:29.701Z,15.56
2019-06-07T01:25:00.009Z,15.51
2019-06-07T01:27:30.324Z,15.53
2019-06-07T01:30:01.072Z,15.53
2019-06-07T01:32:33.177Z,15.59
2019-06-07T01:35:03.478Z,15.78
2019-06-07T01:37:35.274Z,15.54
2019-06-07T01:40:06.528Z,15.28
2019-06-07T01:42:36.818Z,15.43
2019-06-07T01:45:08.058Z,15.46
2019-06-07T01:47:38.714Z,15.45
2019-06-07T01:50:09.765Z,15.48
2019-06-07T01:52:40.184Z,15.62
2019-06-07T01:55:10.846Z,15.48
2019-06-07T01:57:47.958Z,15.38
2019-06-07T02:00:15.623Z,15.48
2019-06-07T02:02:45.911Z,15.35
2019-06-07T02:05:19.144Z,15.34
2019-06-07T02:07:48.850Z,15.36
2019-06-07T02:10:22.320Z,15.34
2019-06-07T02:12:51.728Z,15.57
2019-06-07T02:15:25.044Z,15.60
2019-06-07T02:17:54.437Z,15.68
2019-06-07T02:20:27.235Z,15.63
2019-06-07T02:22:57.138Z,15.53
2019-06-07T02:25:41.949Z,15.57
2019-06-07T02:28:25.942Z,15.57
2019-06-07T02:30:47.555Z,15.39
2019-06-07T02:33:04.124Z,15.43
2019-06-07T02:35:40.360Z,15.27
2019-06-07T02:38:06.894Z,15.27
2019-06-07T02:40:37.712Z,15.24
2019-06-07T02:43:08.441Z,15.33
2019-06-07T02:45:43.455Z,15.32
2019-06-07T02:48:10.949Z,15.50
2019-06-07T02:50:42.045Z,15.43
2019-06-07T02:53:12.554Z,15.45
2019-06-07T02:56:32.845Z,15.35
2019-06-07T02:58:15.222Z,15.37
2019-06-07T03:01:07.063Z,15.31
2019-06-07T03:03:22.357Z,15.52
2019-06-07T03:05:52.624Z,15.28
2019-06-07T03:08:22.944Z,14.63
2019-06-07T03:10:53.531Z,14.73
2019-06-07T03:13:24.200Z,14.65
2019-06-07T03:15:56.449Z,14.92
2019-06-07T03:18:45.117Z,14.80
2019-06-07T03:21:19.637Z,14.69
2019-06-07T03:23:51.471Z,14.56
2019-06-07T03:26:23.953Z,14.71
2019-06-07T03:28:55.897Z,14.79
2019-06-07T03:31:28.509Z,14.88
2019-06-07T03:33:59.131Z,14.80
2019-06-07T03:36:29.692Z,15.00
2019-06-07T03:39:01.281Z,15.05
2019-06-07T03:41:42.007Z,15.19
2019-06-07T03:44:05.047Z,15.27
2019-06-07T03:46:39.033Z,15.38
2019-06-07T03:49:09.257Z,15.51
2019-06-07T03:51:40.937Z,15.61
2019-06-07T03:54:11.699Z,15.60
2019-06-07T03:56:42.353Z,15.79
2019-06-07T03:59:12.638Z,15.82
2019-06-07T04:01:42.944Z,15.79
2019-06-07T04:04:14.102Z,15.97
2019-06-07T04:06:44.379Z,16.00
2019-06-07T04:09:14.665Z,16.21
2019-06-07T04:11:45.377Z,16.58
2019-06-07T04:14:15.932Z,16.55
2019-06-07T04:16:46.321Z,16.65
2019-06-07T04:19:16.972Z,16.65
2019-06-07T04:21:47.667Z,16.67
2019-06-07T04:24:17.964Z,16.73
2019-06-07T04:26:48.574Z,16.73
2019-06-07T04:29:59.992Z,16.97
2019-06-07T04:31:52.124Z,16.97
2019-06-07T04:34:22.561Z,17.03
2019-06-07T04:36:59.206Z,17.16
2019-06-07T04:39:26.619Z,17.29
2019-06-07T04:41:57.647Z,17.32
2019-06-07T04:44:28.883Z,17.47
2019-06-07T04:47:02.468Z,17.47
2019-06-07T04:49:38.106Z,17.61
2019-06-07T04:52:06.841Z,17.86
2019-06-07T04:54:38.546Z,17.86
2019-06-07T04:57:09.703Z,17.96
2019-06-07T05:00:10.996Z,17.96
2019-06-07T05:02:12.028Z,18.13
2019-06-07T05:04:44.017Z,18.27
2019-06-07T05:07:14.428Z,18.33
2019-06-07T05:09:44.802Z,18.24
2019-06-07T05:12:15.148Z,18.43
2019-06-07T05:14:45.532Z,18.39
2019-06-07T05:17:16.270Z,18.33
2019-06-07T05:19:46.688Z,18.03
2019-06-07T05:22:16.282Z,18.14
2019-06-07T05:24:47.084Z,18.33
2019-06-07T05:27:17.351Z,18.57
2019-06-07T05:30:08.715Z,18.69
2019-06-07T05:32:20.521Z,18.92
2019-06-07T05:34:50.873Z,19.04
2019-06-07T05:37:21.223Z,19.29
2019-06-07T05:39:51.856Z,19.34
2019-06-07T05:42:22.158Z,19.36
2019-06-07T05:44:52.861Z,19.56
2019-06-07T05:47:23.147Z,19.65
2019-06-07T05:49:53.801Z,19.69
2019-06-07T05:52:24.564Z,19.88
2019-06-07T05:54:54.918Z,20.08
2019-06-07T05:57:25.194Z,20.14
2019-06-07T05:59:55.868Z,20.31
2019-06-07T06:02:26.362Z,20.51
2019-06-07T06:04:56.796Z,20.87
2019-06-07T06:07:27.100Z,20.91
2019-06-07T06:09:57.738Z,20.95
2019-06-07T06:12:35.538Z,20.91
2019-06-07T06:15:00.274Z,21.20
2019-06-07T06:17:30.677Z,21.13
2019-06-07T06:20:01.381Z,21.34
2019-06-07T06:22:33.157Z,21.55
2019-06-07T06:30:10.205Z,21.45
2019-06-07T06:32:47.203Z,21.49
2019-06-07T06:35:12.699Z,21.48
2019-06-07T06:37:47.173Z,21.53
2019-06-07T06:40:16.654Z,21.33
2019-06-07T06:42:50.077Z,21.46
2019-06-07T06:45:21.107Z,21.74
2019-06-07T06:47:51.785Z,21.81
2019-06-07T06:50:22.670Z,21.99
2019-06-07T06:52:54.633Z,22.24
2019-06-07T06:55:25.171Z,22.41
2019-06-07T06:57:56.060Z,22.71
2019-06-07T07:01:05.892Z,22.72
2019-06-07T07:06:24.207Z,22.96
2019-06-07T07:08:31.552Z,22.70
2019-06-07T07:11:01.835Z,23.05
2019-06-07T07:13:32.573Z,23.00
2019-06-07T07:16:03.066Z,22.80
2019-06-07T07:18:33.808Z,23.10
2019-06-07T07:21:04.093Z,23.20
2019-06-07T07:23:34.378Z,23.19
2019-06-07T07:26:04.749Z,23.20
2019-06-07T07:28:35.067Z,23.33
2019-06-07T07:31:05.351Z,23.65
2019-06-07T07:36:23.201Z,23.70
2019-06-07T07:38:39.790Z,23.80
2019-06-07T07:41:15.591Z,24.09
2019-06-07T07:43:42.090Z,24.05
2019-06-07T07:46:29.613Z,23.98
2019-06-07T07:48:45.943Z,23.61
2019-06-07T07:51:16.343Z,24.38
2019-06-07T07:53:53.183Z,24.29
2019-06-07T07:56:18.800Z,24.48
2019-06-07T07:58:51.175Z,24.53
2019-06-07T08:01:21.169Z,24.90
2019-06-07T08:03:55.844Z,24.93
2019-06-07T08:06:23.446Z,24.82
2019-06-07T08:08:56.681Z,25.04
2019-06-07T08:11:25.772Z,25.06
2019-06-07T08:13:57.631Z,24.70
2019-06-07T08:16:28.212Z,25.03
2019-06-07T08:19:04.034Z,24.67
2019-06-07T08:21:30.678Z,25.29
2019-06-07T08:24:04.651Z,25.44
2019-06-07T08:26:32.949Z,25.04
2019-06-07T08:29:03.533Z,25.17
2019-06-07T08:31:33.858Z,25.44
2019-06-07T08:34:04.372Z,25.57
2019-06-07T08:36:41.764Z,25.75
2019-06-07T08:39:08.643Z,25.87
2019-06-07T08:41:53.508Z,25.98
2019-06-07T08:44:23.363Z,25.80
2019-06-07T08:46:43.312Z,25.99
2019-06-07T08:49:14.867Z,25.96
2019-06-07T08:51:45.155Z,26.29
2019-06-07T08:54:22.721Z,26.45
2019-06-07T08:56:47.467Z,26.48
2019-06-07T08:59:17.828Z,26.15
2019-06-07T09:01:48.124Z,26.30
2019-06-07T09:04:18.684Z,26.64
2019-06-07T09:07:18.448Z,26.54
2019-06-07T09:09:21.397Z,26.74
2019-06-07T09:11:52.452Z,26.30
2019-06-07T09:14:23.729Z,26.74
2019-06-07T09:16:58.797Z,27.15
2019-06-07T09:19:26.129Z,26.99
2019-06-07T09:21:57.563Z,27.15
2019-06-07T09:24:28.612Z,27.31
2019-06-07T09:27:02.376Z,27.17
2019-06-07T09:29:31.437Z,27.13
2019-06-07T09:32:05.879Z,27.03
2019-06-07T09:34:33.897Z,27.52
2019-06-07T09:37:54.787Z,27.30
2019-06-07T09:39:38.387Z,27.60
2019-06-07T09:42:12.247Z,27.89
2019-06-07T09:44:40.875Z,27.94
2019-06-07T09:47:29.862Z,27.94
2019-06-07T09:49:43.225Z,28.41
2019-06-07T09:52:13.531Z,28.44
2019-06-07T09:55:06.108Z,28.51
2019-06-07T09:57:17.501Z,28.64
2019-06-07T09:59:51.277Z,28.96
2019-06-07T10:02:21.736Z,29.50
2019-06-07T10:04:52.031Z,29.37
2019-06-07T10:07:31.368Z,29.53
2019-06-07T10:10:15.802Z,29.84
2019-06-07T10:12:26.836Z,30.44
2019-06-07T10:14:58.601Z,31.03
2019-06-07T10:17:28.980Z,31.35
2019-06-07T10:20:00.465Z,31.65
2019-06-07T10:22:31.336Z,31.47
2019-06-07T10:25:02.020Z,31.32
2019-06-07T10:27:32.694Z,32.02
2019-06-07T10:30:04.060Z,31.58
2019-06-07T10:32:34.487Z,31.66
2019-06-07T10:35:05.523Z,32.67
2019-06-07T10:37:36.990Z,32.27
2019-06-07T10:40:09.103Z,31.61
2019-06-07T10:42:39.631Z,32.72
2019-06-07T10:45:11.983Z,32.47
2019-06-07T10:47:42.371Z,32.78
2019-06-07T10:50:13.158Z,32.88
2019-06-07T10:52:43.553Z,32.84
2019-06-07T10:55:14.155Z,33.43
2019-06-07T10:57:44.487Z,34.10
2019-06-07T11:00:16.845Z,34.44
2019-06-07T11:02:47.142Z,34.21
2019-06-07T11:05:17.895Z,34.49
2019-06-07T11:07:48.159Z,33.37
2019-06-07T11:10:20.195Z,33.77
2019-06-07T11:12:50.509Z,34.14
2019-06-07T11:15:20.994Z,34.30
2019-06-07T11:17:51.387Z,34.13
2019-06-07T11:20:22.795Z,34.43
2019-06-07T11:22:53.254Z,34.54
2019-06-07T11:25:23.653Z,33.91
2019-06-07T11:27:53.964Z,34.52
2019-06-07T11:30:24.275Z,34.79
2019-06-07T11:32:54.584Z,34.91
2019-06-07T11:35:25.220Z,35.15
2019-06-07T11:37:55.700Z,35.18
2019-06-07T11:40:34.894Z,35.61
2019-06-07T11:42:58.567Z,34.67
2019-06-07T11:45:33.936Z,32.70
2019-06-07T11:48:04.554Z,34.31
2019-06-07T11:50:34.821Z,33.82
2019-06-07T11:53:06.566Z,32.88
2019-06-07T11:55:37.257Z,33.93
2019-06-07T11:58:11.685Z,31.79
2019-06-07T12:00:39.889Z,33.38
2019-06-07T12:03:11.570Z,33.68
2019-06-07T12:05:42.300Z,33.37
2019-06-07T12:08:13.999Z,33.00
2019-06-07T12:10:44.420Z,33.50
2019-06-07T12:13:15.501Z,34.42
2019-06-07T12:15:49.141Z,34.39
2019-06-07T12:18:19.769Z,34.59
2019-06-07T12:20:50.157Z,33.77
2019-06-07T12:23:20.786Z,33.61
2019-06-07T12:25:51.186Z,34.69
2019-06-07T12:28:21.446Z,34.94
2019-06-07T12:30:55.090Z,35.62
2019-06-07T12:33:24.215Z,35.90
2019-06-07T12:35:54.825Z,36.71
2019-06-07T12:38:25.352Z,36.99
2019-06-07T12:40:57.907Z,37.22
2019-06-07T12:43:28.438Z,37.33
2019-06-07T12:45:58.916Z,37.90
2019-06-07T12:48:29.584Z,38.39
2019-06-07T12:50:59.893Z,38.94
2019-06-07T12:53:30.168Z,39.18
2019-06-07T12:56:00.948Z,39.89
2019-06-07T12:58:36.265Z,39.48
2019-06-07T13:01:04.243Z,38.85
2019-06-07T13:03:35.039Z,38.23
2019-06-07T13:06:05.706Z,38.13
2019-06-07T13:08:36.005Z,37.73
2019-06-07T13:11:16.175Z,35.52
2019-06-07T13:13:38.795Z,38.09
2019-06-07T13:16:09.591Z,38.93
2019-06-07T13:18:40.007Z,37.59
2019-06-07T13:21:10.275Z,37.38
2019-06-07T13:23:44.263Z,35.50
2019-06-07T13:26:13.149Z,36.14
2019-06-07T13:28:43.413Z,37.12
2019-06-07T13:31:14.094Z,37.94
2019-06-07T13:33:44.924Z,37.05
2019-06-07T13:36:16.169Z,37.00
2019-06-07T13:38:46.563Z,37.63
2019-06-07T13:41:30.214Z,37.39
2019-06-07T13:43:51.587Z,38.69
2019-06-07T13:46:23.021Z,36.87
2019-06-07T13:48:53.599Z,37.30
2019-06-07T13:51:25.150Z,36.65
2019-06-07T13:53:56.455Z,37.44
2019-06-07T13:56:28.247Z,37.97
2019-06-07T13:58:58.699Z,37.51
2019-06-07T14:01:30.466Z,37.51
2019-06-07T14:04:00.765Z,38.88
2019-06-07T14:06:32.201Z,39.43
2019-06-07T14:09:02.881Z,39.70
2019-06-07T14:11:49.589Z,39.76
2019-06-07T14:14:06.571Z,39.25
2019-06-07T14:16:37.332Z,39.81
2019-06-07T14:19:08.784Z,39.87
2019-06-07T14:21:39.447Z,39.58
2019-06-07T14:24:09.712Z,40.25
2019-06-07T14:26:42.957Z,40.03
2019-06-07T14:29:13.527Z,40.52
2019-06-07T14:31:43.838Z,40.51
2019-06-07T14:34:14.128Z,40.54
2019-06-07T14:36:45.002Z,39.36
2019-06-07T14:39:15.673Z,39.20
2019-06-07T14:41:46.184Z,39.95
2019-06-07T14:44:16.776Z,39.46
2019-06-07T14:46:47.535Z,39.29
2019-06-07T14:49:17.887Z,39.44
2019-06-07T14:51:48.219Z,37.55
2019-06-07T14:54:18.492Z,37.03
2019-06-07T14:56:49.170Z,36.05
2019-06-07T14:59:19.585Z,35.51
2019-06-07T15:01:49.948Z,35.21
2019-06-07T15:04:20.650Z,36.36
2019-06-07T15:06:51.358Z,36.88
2019-06-07T15:09:21.619Z,35.47
2019-06-07T15:11:52.037Z,36.03
2019-06-07T15:14:22.388Z,35.74
2019-06-07T15:16:52.901Z,34.54
2019-06-07T15:19:24.249Z,35.17
2019-06-07T15:21:54.861Z,35.21
2019-06-07T15:24:25.536Z,33.43
2019-06-07T15:26:56.389Z,34.58
2019-06-07T15:29:27.484Z,35.77
2019-06-07T15:31:58.232Z,36.15
2019-06-07T15:34:30.429Z,36.59
2019-06-07T15:37:01.005Z,35.79
2019-06-07T15:39:32.577Z,35.70
2019-06-07T15:42:03.237Z,37.10
2019-06-07T15:44:33.665Z,36.87
2019-06-07T15:47:04.011Z,36.31
2019-06-07T15:49:36.070Z,35.64
2019-06-07T15:52:06.467Z,35.51
2019-06-07T15:54:37.112Z,34.64
2019-06-07T15:57:07.402Z,34.85
2019-06-07T15:59:37.760Z,36.01
2019-06-07T16:02:08.521Z,35.83
2019-06-07T16:04:39.765Z,35.50
2019-06-07T16:07:10.109Z,34.59
2019-06-07T16:09:40.765Z,34.76
2019-06-07T16:12:11.166Z,33.13
2019-06-07T16:14:41.482Z,34.77
2019-06-07T16:17:12.080Z,34.98
2019-06-07T16:19:45.998Z,34.95
2019-06-07T16:22:14.666Z,34.89
2019-06-07T16:24:46.330Z,34.76
2019-06-07T16:27:16.600Z,34.34
2019-06-07T16:29:47.007Z,33.46
2019-06-07T16:32:17.298Z,33.59
2019-06-07T16:34:47.603Z,32.67
2019-06-07T16:37:18.317Z,32.54
2019-06-07T16:39:48.821Z,32.50
2019-06-07T16:42:19.083Z,32.08
2019-06-07T16:44:49.816Z,31.86
2019-06-07T16:47:20.586Z,31.88
2019-06-07T16:49:50.952Z,31.88
2019-06-07T16:52:21.685Z,31.96
2019-06-07T16:54:52.246Z,32.23
2019-06-07T16:57:22.590Z,32.68
2019-06-07T16:59:53.048Z,33.15
2019-06-07T17:02:23.805Z,33.50
2019-06-07T17:04:54.073Z,34.10
2019-06-07T17:07:24.403Z,34.48
2019-06-07T17:09:55.186Z,34.71
2019-06-07T17:12:25.452Z,34.59
2019-06-07T17:14:55.794Z,34.78
2019-06-07T17:17:26.604Z,34.81
2019-06-07T17:19:58.215Z,35.22
2019-06-07T17:22:28.512Z,35.39
2019-06-07T17:24:58.916Z,35.61
2019-06-07T17:27:29.582Z,35.65
2019-06-07T17:30:00.012Z,35.66
2019-06-07T17:32:30.325Z,35.25
2019-06-07T17:35:00.626Z,34.54
2019-06-07T17:37:31.340Z,34.07
2019-06-07T17:40:01.822Z,33.51
2019-06-07T17:42:32.135Z,32.50
2019-06-07T17:45:04.177Z,31.67
2019-06-07T17:47:34.757Z,31.57
2019-06-07T17:50:05.962Z,31.57
2019-06-07T17:52:36.476Z,30.62
2019-06-07T17:55:07.213Z,29.67
2019-06-07T17:57:37.512Z,28.83
2019-06-07T18:00:27.804Z,27.61
2019-06-07T18:02:42.385Z,27.28
2019-06-07T18:05:13.701Z,27.38
2019-06-07T18:07:47.741Z,27.24
2019-06-07T18:10:34.449Z,26.83
2019-06-07T18:13:05.417Z,26.54
2019-06-07T18:15:41.082Z,26.32
2019-06-07T18:18:12.062Z,25.99
2019-06-07T18:23:12.021Z,25.54
2019-06-07T18:25:42.334Z,25.40
2019-06-07T18:28:14.035Z,23.63
2019-06-07T18:30:44.711Z,24.66
2019-06-07T18:33:15.275Z,24.40
2019-06-07T18:35:46.970Z,24.58
2019-06-07T18:38:17.521Z,23.97
2019-06-07T18:40:49.009Z,23.97
2019-06-07T18:43:19.901Z,23.67
2019-06-07T18:45:51.395Z,23.39
2019-06-07T18:48:21.920Z,23.55
2019-06-07T18:50:52.664Z,23.61
2019-06-07T18:53:23.028Z,23.64
2019-06-07T18:55:54.025Z,23.09
2019-06-07T18:58:25.030Z,22.90
2019-06-07T19:00:55.692Z,22.80
2019-06-07T19:03:25.965Z,22.76
2019-06-07T19:05:56.602Z,22.97
2019-06-07T19:08:26.892Z,23.46
2019-06-07T19:10:57.509Z,23.41
2019-06-07T19:13:28.022Z,22.91
2019-06-07T19:15:59.632Z,22.60
2019-06-07T19:18:30.093Z,22.68
2019-06-07T19:21:00.701Z,22.53
2019-06-07T19:23:31.083Z,22.44
2019-06-07T19:26:01.705Z,22.40
2019-06-07T19:28:32.410Z,22.41
2019-06-07T19:31:02.691Z,22.43
2019-06-07T19:33:46.245Z,21.98
2019-06-07T19:36:05.711Z,22.18
2019-06-07T19:38:36.017Z,22.04
2019-06-07T19:41:17.992Z,21.94
2019-06-07T19:43:38.679Z,21.73
2019-06-07T19:46:09.086Z,21.94
2019-06-07T19:48:39.467Z,21.71
2019-06-07T19:51:09.836Z,21.91
2019-06-07T19:53:40.452Z,21.51
2019-06-07T19:56:11.115Z,21.43
2019-06-07T19:58:41.430Z,21.40
2019-06-07T20:01:11.886Z,21.58
2019-06-07T20:03:42.462Z,21.70
2019-06-07T20:06:12.727Z,21.87
2019-06-07T20:08:43.048Z,21.54
2019-06-07T20:11:13.632Z,21.30
2019-06-07T20:13:44.046Z,21.19
2019-06-07T20:16:14.777Z,21.18
2019-06-07T20:18:45.047Z,20.92
2019-06-07T20:21:15.357Z,20.85
2019-06-07T20:23:46.027Z,20.80
2019-06-07T20:26:16.418Z,20.65
2019-06-07T20:28:46.772Z,20.65
2019-06-07T20:31:17.543Z,20.65
2019-06-07T20:33:47.886Z,20.59
2019-06-07T20:36:18.225Z,20.63
2019-06-07T20:38:48.892Z,20.75
2019-06-07T20:41:19.620Z,20.40
2019-06-07T20:43:49.969Z,20.47
2019-06-07T20:46:20.242Z,20.46
2019-06-07T20:48:50.544Z,20.40
2019-06-07T20:51:21.219Z,20.35
2019-06-07T20:53:51.881Z,20.37
2019-06-07T20:56:24.564Z,20.30
2019-06-07T20:58:54.622Z,20.17
2019-06-07T21:01:26.329Z,20.01
2019-06-07T21:03:56.635Z,20.10
2019-06-07T21:06:27.313Z,20.03
2019-06-07T21:08:59.254Z,20.05
2019-06-07T21:11:29.648Z,19.87
2019-06-07T21:14:00.055Z,19.84
2019-06-07T21:16:30.408Z,19.86
2019-06-07T21:19:00.756Z,19.85
2019-06-07T21:21:31.032Z,19.87
2019-06-07T21:24:02.545Z,19.92
2019-06-07T21:26:32.896Z,19.83
2019-06-07T21:29:03.491Z,19.80
2019-06-07T21:31:34.031Z,19.83
2019-06-07T21:34:07.658Z,19.81
2019-06-07T21:36:36.747Z,19.79
2019-06-07T21:39:08.428Z,19.73
2019-06-07T21:41:38.812Z,19.77
2019-06-07T21:44:10.359Z,19.85
2019-06-07T21:46:41.843Z,19.73
2019-06-07T21:49:12.848Z,19.70
2019-06-07T21:51:43.681Z,19.83
2019-06-07T21:54:14.887Z,19.93
2019-06-07T21:56:45.370Z,19.82
2019-06-07T21:59:16.083Z,19.84
2019-06-07T22:01:46.840Z,19.82
2019-06-07T22:04:17.107Z,19.63
2019-06-07T22:06:47.842Z,19.48
2019-06-07T22:09:18.491Z,19.41
2019-06-07T22:11:48.779Z,19.67
2019-06-07T22:14:19.164Z,19.60
2019-06-07T22:16:49.774Z,19.38
2019-06-07T22:19:20.081Z,19.41
2019-06-07T22:22:02.151Z,19.63
2019-06-07T22:24:22.816Z,19.78
2019-06-07T22:26:53.495Z,19.91
2019-06-07T22:29:24.214Z,19.60
2019-06-07T22:31:54.483Z,19.52
2019-06-07T22:34:24.957Z,19.46
2019-06-07T22:36:55.682Z,19.31
2019-06-07T22:39:25.996Z,19.52
2019-06-07T22:41:56.317Z,19.35
2019-06-07T22:44:26.772Z,19.51
2019-06-07T22:46:57.068Z,19.38
2019-06-07T22:49:27.381Z,19.50
2019-06-07T22:52:08.312Z,19.12
2019-06-07T22:54:30.229Z,19.00
2019-06-07T22:57:05.726Z,18.97
2019-06-07T22:59:36.047Z,19.01
2019-06-07T23:02:06.340Z,19.21
2019-06-07T23:04:37.088Z,18.98
2019-06-07T23:07:08.734Z,18.92
2019-06-07T23:09:39.159Z,18.87
2019-06-07T23:12:11.040Z,18.77
2019-06-07T23:14:41.431Z,18.79
2019-06-07T23:17:11.769Z,18.96
2019-06-07T23:19:42.391Z,18.87
2019-06-07T23:22:13.798Z,18.82
2019-06-07T23:24:44.196Z,18.71
2019-06-07T23:27:14.525Z,18.83
2019-06-07T23:29:44.803Z,19.02
2019-06-07T23:32:16.712Z,19.28
2019-06-07T23:34:47.231Z,19.45
2019-06-07T23:37:17.523Z,19.40
2019-06-07T23:39:48.276Z,19.50
2019-06-07T23:42:19.743Z,19.40
2019-06-07T23:44:50.092Z,19.23
2019-06-07T23:47:22.344Z,18.95
2019-06-07T23:49:53.142Z,18.98
2019-06-07T23:52:23.433Z,19.20
2019-06-07T23:54:53.881Z,19.03
2019-06-07T23:57:24.175Z,18.53
2019-06-07T23:59:55.849Z,18.50
